• Join FlightAware (Why Join?)
  • Login
  • US Flag 
02:53AM EST


 

Airport Tracker/Info


-or-


 

Live Flight TrackerFlight Track Log ✈ WJA1463 ✈ 15-Mar-2014 ✈ KPHX - CYEG

Flight Track Log - Related Links

Times and Time Zones

All times are in EDT time to prevent confusion due to time zone crossing. See the WJA1463 flight status page for this flight to view local times or setup timezone preferences in your user account.

Time Position Orientation Groundspeed Altitude Reporting Facility
EDT Latitude Longitude Course Direction KTS MPH feet Rate Location/Type
01:59PM 33.4333 -112.0500 20° North 196 226 2,200  Level Phoenix TRACON
02:00PM 33.4333 -112.1167 270° West 228 262 4,000 1,436 Climbing Phoenix TRACON
02:01PM 33.4303 -112.1708 266° West 235 270 5,000 2,283 Climbing Albuquerque Center
02:02PM 33.8359 -111.8270 20° North  Level FlightAware Approximate
02:02PM 33.5061 -112.1903 348° North 257 296 8,300  Level Albuquerque Center
02:03PM 33.9367 -111.7830 20° North  Level FlightAware Approximate
02:03PM 33.5642 -112.1456 33° Northeast 248 285 10,500  Level Albuquerque Center
02:04PM 34.0376 -111.7388 20° North  Level FlightAware Approximate
02:04PM 33.6311 -112.0881 36° Northeast 300 345 11,500  Level Albuquerque Center
02:05PM 33.7058 -112.0250 35° Northeast 327 376 13,800 2,323 Climbing Albuquerque Center
02:06PM 33.7847 -111.9575 35° Northeast 345 397 16,300 2,400 Climbing Albuquerque Center
02:07PM 33.8794 -111.8764 35° Northeast 349 402 18,800 2,496 Climbing Albuquerque Center
02:08PM 33.9606 -111.8064 36° Northeast 356 410 21,500 2,177 Climbing Albuquerque Center
02:09PM 34.0489 -111.7339 34° Northeast 358 412 23,300 1,548 Climbing Albuquerque Center
02:10PM 34.1483 -111.7500 352° North 357 411 24,700 1,258 Climbing Albuquerque Center
02:11PM 34.2500 -111.7728 350° North 369 425 25,900 1,113 Climbing Albuquerque Center
02:12PM 34.3542 -111.7961 350° North 378 435 27,000 1,403 Climbing Albuquerque Center
02:13PM 34.4611 -111.8189 350° North 387 445 28,800 1,887 Climbing Albuquerque Center
02:14PM 34.5622 -111.8406 350° North 377 434 30,900 1,500 Climbing Albuquerque Center
02:15PM 34.6814 -111.8672 350° North 365 420 31,900 532 Climbing Albuquerque Center
02:16PM 34.7883 -111.8897 350° North 371 427 32,000 48 Climbing Albuquerque Center
02:17PM 34.8886 -111.9119 350° North 369 425 32,000  Level Albuquerque Center
02:18PM 34.9892 -111.9336 350° North 368 423 32,000  Level Albuquerque Center
02:19PM 35.0917 -111.9558 350° North 374 430 32,000  Level Albuquerque Center
02:20PM 35.1944 -111.9781 350° North 376 433 32,000  Level Albuquerque Center
02:22PM 35.3169 -112.0042 350° North 376 433 32,000  Level Albuquerque Center
02:23PM 35.4189 -112.0256 350° North 375 432 32,000  Level Albuquerque Center
02:24PM 35.5189 -112.0489 349° North 373 429 32,000  Level Albuquerque Center
02:25PM 35.6197 -112.0708 350° North 371 427 32,000  Level Albuquerque Center
02:26PM 35.7319 -112.0950 350° North 374 430 32,000  Level Los Angeles Center
02:27PM 35.8214 -112.1147 350° North 372 428 32,000  Level Los Angeles Center
02:28PM 35.9233 -112.1381 349° North 373 429 32,000  Level Los Angeles Center
02:29PM 36.0350 -112.1958 337° Northwest 374 430 32,000  Level Los Angeles Center
02:30PM 36.1239 -112.2567 331° Northwest 371 427 32,000  Level Los Angeles Center
02:31PM 36.2147 -112.3156 332° Northwest 365 420 32,000  Level Los Angeles Center
02:32PM 36.3039 -112.3753 332° Northwest 364 419 32,000  Level Los Angeles Center
02:33PM 36.3925 -112.4356 331° Northwest 365 420 32,000  Level Los Angeles Center
02:34PM 36.4806 -112.4956 331° Northwest 362 417 32,000  Level Los Angeles Center
02:35PM 36.5867 -112.5672 332° Northwest 361 415 32,000  Level Los Angeles Center
02:36PM 36.6747 -112.6269 331° Northwest 361 415 32,000  Level Los Angeles Center
02:37PM 36.7631 -112.6875 331° Northwest 362 417 32,000  Level Los Angeles Center
02:38PM 36.8525 -112.7486 331° Northwest 366 421 32,000  Level Los Angeles Center
02:39PM 36.9450 -112.8117 331° Northwest 376 433 32,000  Level Los Angeles Center
02:40PM 37.0375 -112.8747 331° Northwest 377 434 32,000  Level Los Angeles Center
02:41PM 37.1489 -112.9528 331° Northwest 380 437 32,000  Level Los Angeles Center
02:42PM 37.2403 -113.0158 331° Northwest 375 432 32,000  Level Los Angeles Center
02:43PM 37.3367 -113.0825 331° Northwest 384 442 32,000  Level Los Angeles Center
02:44PM 37.4369 -113.1528 331° Northwest 400 460 32,000  Level Los Angeles Center
02:45PM 37.5336 -113.2206 331° Northwest 399 459 32,000  Level Los Angeles Center
02:46PM 37.6247 -113.2839 331° Northwest 378 435 32,000  Level Los Angeles Center
02:47PM 37.7133 -113.3450 331° Northwest 364 419 32,000  Level Los Angeles Center
02:48PM 37.8200 -113.4211 331° Northwest 365 420 32,000  Level Los Angeles Center
02:49PM 37.9092 -113.4839 331° Northwest 365 420 32,000  Level Los Angeles Center
02:50PM 37.9981 -113.5489 330° Northwest 368 423 32,000  Level Los Angeles Center
02:51PM 38.0869 -113.6175 329° Northwest 372 428 32,000  Level Los Angeles Center
02:52PM 38.1764 -113.6844 330° Northwest 372 428 32,000  Level Los Angeles Center
02:54PM 38.2658 -113.7536 329° Northwest 376 433 32,000  Level Los Angeles Center
02:55PM 38.3706 -113.8317 330° Northwest 365 420 32,000  Level Los Angeles Center
02:56PM 38.4753 -113.9075 330° Northwest 364 419 32,000  Level Salt Lake Center
02:57PM 38.5633 -113.9744 329° Northwest 365 420 32,000 195 Level Salt Lake Center
02:58PM 38.6514 -114.0419 329° Northwest 367 422 32,400 387 Climbing Salt Lake Center
02:59PM 38.7389 -114.1122 328° Northwest 368 423 32,800 1,122 Climbing Salt Lake Center
03:00PM 38.8492 -114.1939 330° Northwest 379 436 34,700 1,463 Climbing Salt Lake Center
03:01PM 38.9353 -114.2606 329° Northwest 367 422 35,800 629 Climbing Salt Lake Center
03:02PM 39.0211 -114.3294 328° Northwest 366 421 36,000 98 Climbing Salt Lake Center
03:03PM 39.1106 -114.3986 329° Northwest 368 423 36,000  Level Salt Lake Center
03:04PM 39.1997 -114.4733 327° Northwest 370 426 36,000  Level Salt Lake Center
03:05PM 39.2853 -114.5400 329° Northwest 372 428 36,000  Level Salt Lake Center
03:06PM 39.4019 -114.5422 359° North 375 432 36,000  Level Salt Lake Center
03:07PM 39.5061 -114.5328 North 392 451 36,000  Level Salt Lake Center
03:08PM 39.6250 -114.5239 North 386 444 36,000  Level Salt Lake Center
03:09PM 39.7353 -114.5153 North 384 442 36,000  Level Salt Lake Center
03:10PM 39.8381 -114.5078 North 373 429 36,000  Level Salt Lake Center
03:11PM 39.9419 -114.5003 North 373 429 36,000  Level Salt Lake Center
03:12PM 40.0461 -114.4925 North 374 430 36,000  Level Salt Lake Center
03:13PM 40.1494 -114.4844 North 373 429 36,000  Level Salt Lake Center
03:14PM 40.2514 -114.4758 North 372 428 36,000  Level Salt Lake Center
03:15PM 40.3547 -114.4681 North 371 427 36,000  Level Salt Lake Center
03:16PM 40.4783 -114.4586 North 371 427 36,000  Level Salt Lake Center
03:17PM 40.5794 -114.4514 North 367 422 36,000  Level Salt Lake Center
03:19PM 40.7850 -114.4364 North 370 426 36,000  Level Salt Lake Center
03:20PM 40.8869 -114.4272 North 370 426 36,000  Level Salt Lake Center
03:22PM 40.9886 -114.4211 North 370 426 36,000  Level Salt Lake Center
03:23PM 41.0886 -114.4114 North 366 421 36,000  Level Salt Lake Center
03:24PM 41.1908 -114.4033 North 366 421 36,000  Level Salt Lake Center
03:25PM 41.3144 -114.3933 North 366 421 36,000  Level Salt Lake Center
03:26PM 41.4203 -114.3847 North 374 430 36,000  Level Salt Lake Center
03:27PM 41.5244 -114.3778 North 375 432 36,000  Level Salt Lake Center
03:28PM 41.6286 -114.3689 North 375 432 36,000  Level Salt Lake Center
03:29PM 41.7339 -114.3608 North 376 433 36,000  Level Salt Lake Center
03:30PM 41.8397 -114.3522 North 379 436 36,000  Level Salt Lake Center
03:31PM 41.9442 -114.3439 North 379 436 36,000  Level Salt Lake Center
03:32PM 42.0500 -114.3347 North 379 436 36,000  Level Salt Lake Center
03:33PM 42.1789 -114.3250 North 388 447 36,000  Level Salt Lake Center
03:34PM 42.2839 -114.3147 North 384 442 36,000  Level Salt Lake Center
03:35PM 42.3883 -114.3089 North 380 437 36,000  Level Salt Lake Center
03:36PM 42.4939 -114.3000 North 380 437 36,000  Level Salt Lake Center
03:37PM 42.5986 -114.2914 North 379 436 36,000  Level Salt Lake Center
03:38PM 42.7028 -114.2836 North 378 435 36,000  Level Salt Lake Center
03:39PM 42.8064 -114.2753 North 376 433 36,000  Level Salt Lake Center
03:40PM 42.9283 -114.2650 North 373 429 36,000  Level Salt Lake Center
03:41PM 43.0225 -114.2567 North 370 426 36,000  Level Salt Lake Center
03:42PM 43.1231 -114.2492 North 364 419 36,000  Level Salt Lake Center
03:43PM 43.2253 -114.2400 North 366 421 36,000  Level Salt Lake Center
03:44PM 43.3481 -114.2303 North 368 423 36,000  Level Salt Lake Center
03:45PM 43.4511 -114.2208 North 370 426 36,000  Level Salt Lake Center
03:46PM 43.5531 -114.2086 North 370 426 36,000  Level Salt Lake Center
03:47PM 43.6561 -114.1833 10° North 373 429 36,000  Level Salt Lake Center
03:48PM 43.7581 -114.1611 North 373 429 36,000  Level Salt Lake Center
03:49PM 43.8597 -114.1372 10° North 373 429 36,000  Level Salt Lake Center
03:50PM 43.9628 -114.1136 North 374 430 36,000  Level Salt Lake Center
03:51PM 44.0650 -114.0903 North 376 433 36,000  Level Salt Lake Center
03:52PM 44.1892 -114.0619 North 376 433 36,000  Level Salt Lake Center
03:53PM 44.2917 -114.0369 10° North 376 433 36,000  Level Salt Lake Center
03:54PM 44.3967 -114.0142 North 378 435 36,000  Level Salt Lake Center
03:55PM 44.4983 -113.9897 10° North 378 435 36,000  Level Salt Lake Center
03:56PM 44.6033 -113.9650 10° North 379 436 36,000  Level Salt Lake Center
03:57PM 44.7181 -113.9364 10° North 379 436 36,000  Level Salt Lake Center
03:58PM 44.8169 -113.9144 North 379 436 36,000  Level Salt Lake Center
03:59PM 44.9372 -113.8853 10° North 383 441 36,000  Level Salt Lake Center
04:01PM 45.0381 -113.8603 10° North 385 443 36,000  Level Salt Lake Center
04:02PM 45.1367 -113.8383 North 383 441 36,000  Level Salt Lake Center
04:03PM 45.2544 -113.8094 10° North 382 440 36,000  Level Salt Lake Center
04:04PM 45.3581 -113.7844 10° North 389 448 36,000  Level Salt Lake Center
04:05PM 45.4639 -113.7600 North 391 450 36,000  Level Salt Lake Center
04:06PM 45.5664 -113.7339 10° North 381 438 36,000  Level Salt Lake Center
04:07PM 45.6811 -113.7072 North 381 438 36,000  Level Salt Lake Center
04:08PM 45.7847 -113.6822 10° North 379 436 36,000  Level Salt Lake Center
04:09PM 45.8886 -113.6572 10° North 379 436 36,000  Level Salt Lake Center
04:10PM 46.0078 -113.6278 10° North 379 436 36,000 145 Level Salt Lake Center
04:11PM 46.1178 -113.6011 10° North 387 445 36,300 390 Climbing Salt Lake Center
04:12PM 46.2289 -113.5767 North 395 455 36,800 541 Climbing Salt Lake Center
04:13PM 46.3389 -113.5475 10° North 399 459 37,400 537 Climbing Salt Lake Center
04:14PM 46.4494 -113.5200 10° North 402 463 37,900 293 Climbing Salt Lake Center
04:15PM 46.5622 -113.4911 10° North 410 472 38,000 49 Climbing Salt Lake Center
04:16PM 46.6736 -113.4647 North 409 471 38,000  Level Salt Lake Center
04:17PM 46.7858 -113.4758 356° North 409 471 38,000  Level Salt Lake Center
04:18PM 46.8986 -113.4867 356° North 406 467 38,000  Level Salt Lake Center
04:19PM 47.0139 -113.4956 357° North 411 473 38,000  Level Salt Lake Center
04:20PM 47.1494 -113.5067 357° North 411 473 38,000  Level Salt Lake Center
04:21PM 47.2644 -113.5181 356° North 412 474 38,000  Level Salt Lake Center
04:22PM 47.3744 -113.5272 357° North 401 461 38,000  Level Salt Lake Center
04:23PM 47.4861 -113.5367 357° North 402 463 38,000  Level Salt Lake Center
04:24PM 47.5978 -113.5450 357° North 403 464 38,000  Level Salt Lake Center
04:25PM 47.7097 -113.5553 356° North 403 464 38,000  Level Salt Lake Center
04:26PM 47.8242 -113.5658 356° North 411 473 38,000  Level Salt Lake Center
04:27PM 47.9611 -113.5778 357° North 413 475 38,000  Level Salt Lake Center
04:28PM 48.0747 -113.5878 357° North 413 475 38,000  Level Salt Lake Center
04:29PM 48.1867 -113.5994 356° North 412 474 38,000  Level Salt Lake Center
04:30PM 48.2989 -113.6092 357° North 411 473 38,000  Level Salt Lake Center
04:31PM 48.4108 -113.6183 357° North 411 473 38,000  Level Salt Lake Center
04:32PM 48.5244 -113.6286 357° North 410 472 38,000  Level Salt Lake Center
04:33PM 48.6597 -113.6397 357° North 410 472 38,000  Level Salt Lake Center
04:34PM 48.7733 -113.6522 356° North 410 472 38,000  Level Salt Lake Center
04:35PM 48.8872 -113.6625 357° North 410 472 38,000  Level Salt Lake Center
04:36PM 48.9500 -113.6833 348° North 410 472 38,000  Level Edmonton Center
04:37PM 49.0500 -113.7000 354° North 410 472 38,000  Level Edmonton Center
04:38PM 49.1667 -113.7000 360° North 410 472 38,000  Level Edmonton Center
04:39PM 49.2833 -113.7167 355° North 410 472 38,000  Level Edmonton Center
04:40PM 49.4000 -113.7167 360° North 420 483 38,000  Level Edmonton Center
04:41PM 49.5167 -113.7500 349° North 420 483 38,000  Level Edmonton Center
04:42PM 49.6333 -113.7333 North 420 483 38,000  Level Edmonton Center
04:43PM 49.7500 -113.7667 350° North 420 483 38,000  Level Edmonton Center
04:44PM 49.8667 -113.7833 355° North 410 472 38,000  Level Edmonton Center
04:45PM 49.9667 -113.7833 360° North 410 472 38,000  Level Edmonton Center
04:46PM 50.0833 -113.8000 355° North 410 472 38,000  Level Edmonton Center
04:47PM 50.2000 -113.8000 360° North 410 472 38,000  Level Edmonton Center
04:48PM 50.3167 -113.8167 355° North 410 472 38,000  Level Edmonton Center
04:49PM 50.4333 -113.8167 360° North 410 472 38,000  Level Edmonton Center
04:50PM 50.5500 -113.8500 350° North 410 472 38,000  Level Edmonton Center
04:51PM 50.6833 -113.8667 355° North 410 472 38,000  Level Edmonton Center
04:52PM 50.7833 -113.8667 360° North 420 483 38,000  Level Edmonton Center
04:53PM 50.9000 -113.8833 355° North 410 472 38,000  Level Edmonton Center
04:54PM 51.0167 -113.8833 360° North 410 472 38,000  Level Edmonton Center
04:55PM 51.1333 -113.9000 355° North 400 460 38,000  Level Edmonton Center
04:56PM 51.2333 -113.9333 348° North 410 472 38,000  Level Edmonton Center
04:57PM 51.3500 -113.9333 360° North 410 472 38,000  Level Edmonton Center
04:58PM 51.4667 -113.9500 355° North 410 472 38,000  Level Edmonton Center
04:59PM 51.5833 -113.9500 360° North 410 472 38,000 -700 Level Edmonton Center
05:00PM 51.7000 -113.9167 10° North 420 483 36,600 -1,400 Descending Edmonton Center
05:01PM 51.8167 -113.8667 15° North 410 472 35,200 -1,900 Descending Edmonton Center
05:02PM 51.9167 -113.8333 12° North 390 449 32,800 -3,350 Descending Edmonton Center
05:03PM 52.0167 -113.7667 22° Northeast 380 437 28,500 -3,100 Descending Edmonton Center
05:04PM 52.1333 -113.7333 10° North 390 449 26,600 -1,750 Descending Edmonton Center
05:05PM 52.2333 -113.7000 12° North 370 426 25,000 -1,850 Descending Edmonton Center
05:06PM 52.3333 -113.6667 12° North 360 414 22,900 -2,000 Descending Edmonton Center
05:07PM 52.4333 -113.6333 11° North 360 414 21,000 -1,900 Descending Edmonton Center
05:08PM 52.5167 -113.5667 26° Northeast 360 414 19,100 -1,950 Descending Edmonton Center
05:09PM 52.6167 -113.5500 North 340 391 17,100 -1,850 Descending Edmonton Center
05:10PM 52.7000 -113.5500 360° North 330 380 15,400 -1,850 Descending Edmonton Center
05:11PM 52.8000 -113.5333 North 330 380 13,400 -1,850 Descending Edmonton Center
05:12PM 52.8833 -113.5500 353° North 320 368 11,700 -1,600 Descending Edmonton Center
05:13PM 52.9667 -113.5667 353° North 300 345 10,200 -1,100 Descending Edmonton Center
05:14PM 53.0333 -113.6167 336° Northwest 240 276 9,500 -1,000 Descending Edmonton Center
05:15PM 53.1000 -113.6833 329° Northwest 270 311 8,200 -1,300 Descending Edmonton Center
05:16PM 53.1833 -113.7333 340° North 280 322 6,900 -1,050 Descending Edmonton Center
05:17PM 53.2500 -113.7667 343° North 250 288 6,100 -900 Descending Edmonton Center
05:18PM 53.3167 -113.7833 352° North 220 253 5,100 -1,050 Descending Edmonton Center
05:19PM 53.3333 -113.7333 61° Northeast 170 196 4,000 -900 Descending Edmonton Center
05:20PM 53.3000 -113.6667 130° Southeast 140 161 3,300 -750 Descending Edmonton Center
05:21PM 53.2833 -113.6333 130° Southeast 150 173 2,500 -500 Descending Edmonton Center
05:22PM 53.2667 -113.5833 119° Southeast 140 161 2,300 -200 Descending Edmonton Center